Time;durP1;ratioP1;P1;durP2;ratioP2;P2;SDS_P1;SDS_P2;PMS_P1;PMS_P2;Temp;Humidity;BMP_temperature;BMP_pressure;BME280_temperature;BME280_humidity;BME280_pressure;Samples;Min_cycle;Max_cycle;Signal;HPM_P1;HPM_P2
2023/07/31 00:01:20;;;;;;;;;;;;;;;24.65;58.43;100211.81;7397792;19;1851;-42
2023/07/31 00:03:49;;;;;;;;;;;;;;;24.64;58.69;100218.25;7397635;19;1388;-42
2023/07/31 00:06:20;;;;;;;;;;;;;;;24.60;58.70;100214.22;7398004;19;1481;-42
2023/07/31 00:08:48;;;;;;;;;;;;;;;24.64;58.24;100209.31;7397088;19;1457;-42
2023/07/31 00:11:16;;;;;;;;;;;;;;;24.65;58.15;100211.81;7397832;19;1500;-42
2023/07/31 00:13:44;;;;;;;;;;;;;;;24.74;57.99;100194.47;7396952;19;1962;-42
2023/07/31 00:16:13;;;;;;;;;;;;;;;24.77;58.29;100195.94;7397607;19;1195;-41
2023/07/31 00:18:41;;;;;;;;;;;;;;;24.79;57.47;100196.63;7398284;19;1397;-41
2023/07/31 00:21:09;;;;;;;;;;;;;;;24.75;58.17;100214.22;7394725;19;1849;-42
2023/07/31 00:23:40;;;;;;;;;;;;;;;24.61;58.09;100214.06;7397763;19;1184;-41
2023/07/31 00:26:08;;;;;;;;;;;;;;;24.64;58.10;100220.13;7396173;19;1562;-41
2023/07/31 00:28:37;;;;;;;;;;;;;;;24.59;57.88;100208.00;7397986;19;1337;-41
2023/07/31 00:31:05;;;;;;;;;;;;;;;24.53;57.57;100199.78;7397088;19;1513;-42
2023/07/31 00:33:34;;;;;;;;;;;;;;;24.52;57.43;100207.06;7396604;19;1250;-41
2023/07/31 00:36:02;;;;;;;;;;;;;;;24.60;57.05;100212.38;7397350;19;1646;-42
2023/07/31 00:38:30;;;;;;;;;;;;;;;24.64;57.38;100201.19;7397273;19;1473;-42
2023/07/31 00:41:01;;;;;;;;;;;;;;;24.68;57.38;100202.50;7394583;19;1849;-42
2023/07/31 00:43:29;;;;;;;;;;;;;;;24.72;56.97;100195.69;7395406;19;1607;-42
2023/07/31 00:45:58;;;;;;;;;;;;;;;24.60;57.24;100198.84;7395883;19;1350;-42
2023/07/31 00:48:26;;;;;;;;;;;;;;;24.54;57.42;100199.59;7396409;19;1249;-41
2023/07/31 00:50:54;;;;;;;;;;;;;;;24.52;57.45;100196.25;7396689;19;1377;-42
2023/07/31 00:53:23;;;;;;;;;;;;;;;24.52;56.90;100190.84;7395945;19;1301;-41
2023/07/31 00:55:51;;;;;;;;;;;;;;;24.46;57.29;100202.34;7397364;19;1225;-42
2023/07/31 00:58:22;;;;;;;;;;;;;;;24.56;57.27;100202.94;7396630;19;1280;-42
2023/07/31 01:00:50;;;;;;;;;;;;;;;24.47;57.33;100195.94;7394736;19;1846;-41
2023/07/31 01:03:19;;;;;;;;;;;;;;;24.52;57.12;100198.09;7396649;19;1279;-42
2023/07/31 01:05:52;;;;;;;;;;;;;;;24.56;57.33;100192.13;7396207;19;1290;-42
2023/07/31 01:08:26;;;;;;;;;;;;;;;24.50;57.41;100187.47;7396190;19;1501;-42
2023/07/31 01:10:58;;;;;;;;;;;;;;;24.33;57.79;100189.50;7395450;19;1323;-42
2023/07/31 01:13:30;;;;;;;;;;;;;;;24.47;57.90;100181.56;7395769;19;1473;-41
2023/07/31 01:15:58;;;;;;;;;;;;;;;24.37;58.28;100188.09;7395355;19;1401;-42
2023/07/31 01:18:27;;;;;;;;;;;;;;;24.38;58.42;100186.22;7395721;19;1338;-42
2023/07/31 01:20:59;;;;;;;;;;;;;;;24.46;58.50;100204.22;7393123;19;1845;-42
2023/07/31 01:23:45;;;;;;;;;;;;;;;24.39;58.95;100194.16;7394734;19;1273;-41
2023/07/31 01:26:20;;;;;;;;;;;;;;;24.45;59.18;100178.22;7394583;19;1524;-42
2023/07/31 01:28:53;;;;;;;;;;;;;;;24.39;59.40;100202.28;7396026;19;1275;-42
2023/07/31 01:31:23;;;;;;;;;;;;;;;24.42;59.72;100201.06;7395192;19;1442;-42
2023/07/31 01:33:53;;;;;;;;;;;;;;;24.38;60.19;100194.34;7395254;19;1309;-42
2023/07/31 01:36:21;;;;;;;;;;;;;;;24.35;60.54;100205.50;7395297;19;1509;-42
2023/07/31 01:38:50;;;;;;;;;;;;;;;24.36;60.74;100199.94;7393260;19;1575;-41
2023/07/31 01:41:21;;;;;;;;;;;;;;;24.45;61.28;100203.38;7392807;19;1841;-42
2023/07/31 01:43:50;;;;;;;;;;;;;;;24.53;61.37;100214.16;7396047;19;1300;-42
2023/07/31 01:46:19;;;;;;;;;;;;;;;24.52;60.98;100201.66;7396213;19;1246;-41
2023/07/31 01:48:47;;;;;;;;;;;;;;;24.62;61.10;100223.00;7395177;19;1562;-42
2023/07/31 01:51:15;;;;;;;;;;;;;;;24.51;62.20;100221.59;7393530;19;1488;-41
2023/07/31 01:53:43;;;;;;;;;;;;;;;24.52;62.49;100217.88;7392830;19;1468;-41
2023/07/31 01:56:11;;;;;;;;;;;;;;;23.94;62.38;100170.78;7394700;19;1641;-41
2023/07/31 01:58:42;;;;;;;;;;;;;;;24.51;62.83;100221.59;7393852;19;1579;-41
2023/07/31 02:01:11;;;;;;;;;;;;;;;24.52;62.52;100222.44;7392540;19;1861;-42
2023/07/31 02:03:39;;;;;;;;;;;;;;;24.56;62.08;100224.56;7394169;19;1456;-42
2023/07/31 02:06:07;;;;;;;;;;;;;;;24.13;61.82;100164.88;7393607;19;1614;-42
2023/07/31 02:08:35;;;;;;;;;;;;;;;24.58;61.70;100217.13;7393388;19;1965;-42
2023/07/31 02:11:04;;;;;;;;;;;;;;;24.58;62.06;100221.69;7393910;19;1381;-42
2023/07/31 02:13:32;;;;;;;;;;;;;;;24.54;62.10;100237.44;7392276;19;1554;-42
2023/07/31 02:16:03;;;;;;;;;;;;;;;24.56;62.45;100229.97;7393777;19;1534;-42
2023/07/31 02:18:31;;;;;;;;;;;;;;;24.59;62.44;100235.03;7393239;19;1254;-41
2023/07/31 02:20:59;;;;;;;;;;;;;;;24.58;62.67;100249.56;7390910;19;1839;-42
2023/07/31 02:23:28;;;;;;;;;;;;;;;24.52;62.61;100246.75;7392983;19;1289;-42
2023/07/31 02:25:56;;;;;;;;;;;;;;;24.53;62.77;100246.59;7393603;19;1400;-42
2023/07/31 02:28:24;;;;;;;;;;;;;;;24.52;62.76;100244.91;7394749;19;1207;-41
2023/07/31 02:30:53;;;;;;;;;;;;;;;24.48;63.29;100254.38;7393620;19;1538;-42
2023/07/31 02:33:23;;;;;;;;;;;;;;;24.46;63.21;100247.47;7394204;19;1374;-42
2023/07/31 02:35:52;;;;;;;;;;;;;;;24.42;62.99;100257.81;7393529;19;1964;-42
2023/07/31 02:38:20;;;;;;;;;;;;;;;24.59;63.10;100258.50;7394122;19;1394;-42
2023/07/31 02:40:48;;;;;;;;;;;;;;;24.56;63.23;100267.81;7392280;19;1855;-42
2023/07/31 02:43:17;;;;;;;;;;;;;;;24.48;63.73;100248.97;7393281;19;1638;-42
2023/07/31 02:45:45;;;;;;;;;;;;;;;24.52;63.02;100255.72;7393425;19;1367;-42
2023/07/31 02:48:13;;;;;;;;;;;;;;;24.55;63.48;100252.66;7393522;19;1557;-42
2023/07/31 02:50:44;;;;;;;;;;;;;;;24.54;63.33;100245.56;7396013;19;1317;-42
2023/07/31 02:53:12;;;;;;;;;;;;;;;24.52;63.91;100261.13;7400684;19;1508;-42
2023/07/31 02:55:41;;;;;;;;;;;;;;;24.51;63.90;100251.34;7401237;19;1287;-42
2023/07/31 02:58:12;;;;;;;;;;;;;;;24.46;64.39;100263.69;7399753;19;1527;-42
2023/07/31 03:00:44;;;;;;;;;;;;;;;24.48;63.76;100238.16;7398440;19;1862;-42
2023/07/31 03:03:12;;;;;;;;;;;;;;;24.56;63.90;100264.28;7400260;19;1559;-42
2023/07/31 03:05:41;;;;;;;;;;;;;;;24.58;63.60;100259.53;7400083;19;1264;-42
2023/07/31 03:08:11;;;;;;;;;;;;;;;24.54;64.33;100259.06;7400643;19;1610;-42
2023/07/31 03:10:40;;;;;;;;;;;;;;;24.52;64.71;100255.72;7400168;19;1404;-42
2023/07/31 03:13:08;;;;;;;;;;;;;;;24.51;64.28;100256.75;7398746;19;1662;-42
2023/07/31 03:15:36;;;;;;;;;;;;;;;24.47;64.49;100257.25;7400270;19;1456;-42
2023/07/31 03:18:05;;;;;;;;;;;;;;;24.42;64.53;100255.94;7397138;19;1404;-57
2023/07/31 03:20:33;;;;;;;;;;;;;;;24.43;64.57;100251.38;7397621;19;1859;-42
2023/07/31 03:23:01;;;;;;;;;;;;;;;24.48;64.47;100248.97;7400268;19;1182;-42
2023/07/31 03:25:32;;;;;;;;;;;;;;;24.50;64.79;100254.19;7399857;19;1551;-42
2023/07/31 03:28:00;;;;;;;;;;;;;;;24.53;64.05;100245.72;7398995;19;1863;-42
2023/07/31 03:30:29;;;;;;;;;;;;;;;24.53;64.52;100252.00;7396982;19;1464;-49
2023/07/31 03:32:57;;;;;;;;;;;;;;;24.49;64.37;100238.97;7398229;19;1436;-42
2023/07/31 03:35:26;;;;;;;;;;;;;;;24.45;64.80;100249.31;7399460;19;1461;-42
2023/07/31 03:37:54;;;;;;;;;;;;;;;24.53;65.19;100259.25;7398281;19;1257;-42
2023/07/31 03:40:22;;;;;;;;;;;;;;;24.52;63.95;100252.16;7399601;19;1845;-42
2023/07/31 03:42:53;;;;;;;;;;;;;;;24.49;65.11;100242.53;7397267;19;1465;-42
2023/07/31 03:45:22;;;;;;;;;;;;;;;24.54;65.18;100250.13;7399369;19;1292;-41
2023/07/31 03:47:50;;;;;;;;;;;;;;;24.50;65.91;100240.69;7398705;19;1288;-42
2023/07/31 03:50:18;;;;;;;;;;;;;;;24.48;66.02;100256.25;7400174;19;1312;-41
2023/07/31 03:52:47;;;;;;;;;;;;;;;24.47;66.00;100247.28;7398010;19;1567;-42
2023/07/31 03:55:15;;;;;;;;;;;;;;;24.47;65.15;100252.69;7399438;19;1575;-42
2023/07/31 03:57:43;;;;;;;;;;;;;;;24.52;65.07;100250.31;7398587;19;1492;-42
2023/07/31 04:00:15;;;;;;;;;;;;;;;24.51;65.60;100259.44;7398586;19;1865;-42
2023/07/31 04:02:43;;;;;;;;;;;;;;;24.52;65.65;100265.69;7397990;19;1380;-42
2023/07/31 04:05:12;;;;;;;;;;;;;;;24.50;65.76;100257.75;7397216;19;1242;-42
2023/07/31 04:07:40;;;;;;;;;;;;;;;24.52;65.15;100261.13;7395297;19;1239;-41
2023/07/31 04:10:08;;;;;;;;;;;;;;;24.55;64.25;100260.75;7396998;19;1464;-42
2023/07/31 04:12:37;;;;;;;;;;;;;;;24.60;64.41;100269.13;7397243;19;1677;-42
2023/07/31 04:15:05;;;;;;;;;;;;;;;24.62;63.97;100266.25;7397330;19;1237;-41
2023/07/31 04:17:36;;;;;;;;;;;;;;;24.60;64.61;100271.00;7397749;19;1240;-42
2023/07/31 04:20:05;;;;;;;;;;;;;;;24.60;65.03;100269.13;7396274;19;1343;-42
2023/07/31 04:22:33;;;;;;;;;;;;;;;24.60;64.78;100274.53;7394855;19;1860;-41
2023/07/31 04:25:01;;;;;;;;;;;;;;;24.58;65.03;100282.00;7396735;19;1515;-42
2023/07/31 04:27:29;;;;;;;;;;;;;;;24.55;65.26;100278.81;7396376;19;1500;-42
2023/07/31 04:29:58;;;;;;;;;;;;;;;24.60;64.82;100279.13;7395937;19;1426;-42
2023/07/31 04:32:26;;;;;;;;;;;;;;;24.58;64.97;100278.47;7396854;19;1385;-42
2023/07/31 04:34:57;;;;;;;;;;;;;;;24.58;64.91;100268.47;7396331;19;1281;-42
2023/07/31 04:37:25;;;;;;;;;;;;;;;24.57;65.32;100280.34;7396261;19;1390;-41
2023/07/31 04:39:53;;;;;;;;;;;;;;;24.57;64.97;100280.34;7395219;19;1217;-42
2023/07/31 04:42:22;;;;;;;;;;;;;;;24.61;64.51;100275.38;7394223;19;1839;-42
2023/07/31 04:44:50;;;;;;;;;;;;;;;24.68;64.95;100278.19;7395881;19;1210;-42
2023/07/31 04:47:18;;;;;;;;;;;;;;;24.62;64.98;100277.06;7397143;19;1457;-42
2023/07/31 04:49:47;;;;;;;;;;;;;;;24.58;65.30;100275.75;7396504;19;1532;-42
2023/07/31 04:52:17;;;;;;;;;;;;;;;24.72;64.73;100293.84;7396746;19;1571;-42
2023/07/31 04:54:46;;;;;;;;;;;;;;;24.59;64.94;100286.41;7395068;19;1186;-42
2023/07/31 04:57:14;;;;;;;;;;;;;;;24.60;65.50;100285.34;7396131;19;1484;-41
2023/07/31 04:59:42;;;;;;;;;;;;;;;24.39;65.83;100287.88;7395654;19;1278;-41
2023/07/31 05:02:11;;;;;;;;;;;;;;;24.29;66.59;100271.97;7394682;19;1830;-42
2023/07/31 05:04:39;;;;;;;;;;;;;;;24.38;66.63;100297.03;7396123;19;1563;-42
2023/07/31 05:07:08;;;;;;;;;;;;;;;24.54;66.55;100285.25;7395967;19;1539;-42
2023/07/31 05:09:39;;;;;;;;;;;;;;;24.36;66.96;100291.81;7394957;19;1869;-42
2023/07/31 05:12:08;;;;;;;;;;;;;;;24.46;67.06;100291.56;7394260;19;1504;-42
2023/07/31 05:14:36;;;;;;;;;;;;;;;24.44;67.26;100290.91;7394173;19;1512;-42
2023/07/31 05:17:04;;;;;;;;;;;;;;;24.34;67.69;100296.56;7395645;19;1397;-42
2023/07/31 05:19:33;;;;;;;;;;;;;;;24.42;67.41;100293.78;7394722;19;1247;-42
2023/07/31 05:22:01;;;;;;;;;;;;;;;24.33;67.86;100280.50;7392986;19;1830;-42
2023/07/31 05:24:29;;;;;;;;;;;;;;;24.36;67.84;100296.38;7394502;19;1354;-42
2023/07/31 05:27:00;;;;;;;;;;;;;;;24.39;67.96;100293.28;7394692;19;1237;-42
2023/07/31 05:29:28;;;;;;;;;;;;;;;24.30;68.12;100291.72;7395922;19;1271;-43
2023/07/31 05:31:56;;;;;;;;;;;;;;;24.48;67.76;100300.31;7395506;19;1642;-43
2023/07/31 05:34:25;;;;;;;;;;;;;;;24.42;67.80;100295.66;7395993;19;1211;-43
2023/07/31 05:36:53;;;;;;;;;;;;;;;24.52;67.83;100307.06;7394430;19;1806;-43
2023/07/31 05:39:21;;;;;;;;;;;;;;;24.41;68.64;100311.03;7395155;19;1837;-43
2023/07/31 05:41:50;;;;;;;;;;;;;;;24.51;68.29;100318.91;7392449;19;1840;-43
2023/07/31 05:44:20;;;;;;;;;;;;;;;24.51;67.91;100297.28;7394254;19;1366;-42
2023/07/31 05:46:49;;;;;;;;;;;;;;;24.53;68.01;100316.88;7394781;19;1492;-42
2023/07/31 05:49:17;;;;;;;;;;;;;;;24.46;69.27;100302.38;7393502;19;1367;-43
2023/07/31 05:51:45;;;;;;;;;;;;;;;24.49;68.72;100307.41;7396096;19;1129;-43
2023/07/31 05:54:13;;;;;;;;;;;;;;;24.43;68.92;100324.34;7394860;19;1507;-42
2023/07/31 05:56:42;;;;;;;;;;;;;;;24.48;69.53;100318.41;7392987;19;1312;-42
2023/07/31 05:59:11;;;;;;;;;;;;;;;24.39;70.17;100314.91;7386554;19;1463;-49
2023/07/31 06:01:42;;;;;;;;;;;;;;;24.40;70.52;100316.59;7392411;19;1861;-49
2023/07/31 06:04:10;;;;;;;;;;;;;;;24.53;69.95;100316.00;7393706;19;1639;-49
2023/07/31 06:06:38;;;;;;;;;;;;;;;24.57;69.41;100307.38;7393637;19;1603;-49
2023/07/31 06:09:07;;;;;;;;;;;;;;;24.56;69.21;100311.06;7394452;19;1527;-52
2023/07/31 06:11:35;;;;;;;;;;;;;;;24.61;68.94;100305.97;7394735;19;1281;-49
2023/07/31 06:14:03;;;;;;;;;;;;;;;24.66;68.10;100308.13;7393611;19;1260;-49
2023/07/31 06:16:32;;;;;;;;;;;;;;;24.61;68.35;100314.09;7394486;19;1511;-49
2023/07/31 06:19:03;;;;;;;;;;;;;;;24.58;68.10;100316.31;7393612;19;1626;-48
2023/07/31 06:21:32;;;;;;;;;;;;;;;24.59;67.40;100328.78;7387236;19;1853;-48
2023/07/31 06:24:00;;;;;;;;;;;;;;;24.54;67.71;100323.09;7384589;19;1497;-49
2023/07/31 06:26:28;;;;;;;;;;;;;;;24.52;67.48;100319.75;7395182;19;1480;-49
2023/07/31 06:28:57;;;;;;;;;;;;;;;24.52;67.21;100330.56;7394571;19;1256;-49
2023/07/31 06:31:25;;;;;;;;;;;;;;;24.52;67.30;100344.06;7395836;19;1468;-49
2023/07/31 06:33:53;;;;;;;;;;;;;;;24.50;67.22;100328.03;7394586;19;1618;-49
2023/07/31 06:36:24;;;;;;;;;;;;;;;24.55;66.97;100320.22;7396665;19;1483;-49
2023/07/31 06:38:53;;;;;;;;;;;;;;;24.56;66.63;100332.72;7397784;19;1488;-49
2023/07/31 06:41:21;;;;;;;;;;;;;;;24.60;66.43;100327.78;7396124;19;1853;-49
2023/07/31 06:43:49;;;;;;;;;;;;;;;24.58;66.43;100319.00;7396911;19;1318;-48
2023/07/31 06:46:17;;;;;;;;;;;;;;;24.59;66.35;100326.09;7396496;19;1808;-48
2023/07/31 06:48:45;;;;;;;;;;;;;;;24.60;66.33;100330.47;7398808;19;1409;-48
2023/07/31 06:51:14;;;;;;;;;;;;;;;24.63;66.17;100331.97;7402361;19;1658;-49
2023/07/31 06:53:45;;;;;;;;;;;;;;;24.64;66.15;100322.84;7402405;19;1816;-49
2023/07/31 06:56:13;;;;;;;;;;;;;;;24.69;66.08;100336.63;7402293;19;1741;-49
2023/07/31 06:58:42;;;;;;;;;;;;;;;24.69;65.73;100326.69;7402650;19;951;-49
2023/07/31 07:01:10;;;;;;;;;;;;;;;24.68;65.87;100324.16;7401153;19;1860;-48
2023/07/31 07:03:38;;;;;;;;;;;;;;;24.70;65.97;100316.72;7400891;19;1186;-49
2023/07/31 07:06:06;;;;;;;;;;;;;;;24.72;65.61;100309.25;7401318;19;1218;-48
2023/07/31 07:08:35;;;;;;;;;;;;;;;24.73;65.64;100310.91;7401008;19;1560;-49
2023/07/31 07:11:06;;;;;;;;;;;;;;;24.75;65.58;100319.69;7400619;19;1543;-49
2023/07/31 07:13:34;;;;;;;;;;;;;;;24.76;65.28;100333.03;7400540;19;1321;-49
2023/07/31 07:16:02;;;;;;;;;;;;;;;24.78;65.25;100335.56;7400741;19;1571;-49
2023/07/31 07:18:31;;;;;;;;;;;;;;;24.84;65.25;100329.41;7397577;19;1547;-49
2023/07/31 07:21:01;;;;;;;;;;;;;;;24.78;65.16;100330.16;7397999;19;1270;-49
2023/07/31 07:23:30;;;;;;;;;;;;;;;24.82;65.18;100344.97;7398285;19;1845;-49
2023/07/31 07:25:58;;;;;;;;;;;;;;;24.89;64.97;100343.22;7400774;19;1252;-49
2023/07/31 07:28:29;;;;;;;;;;;;;;;24.88;64.89;100351.50;7400694;19;1082;-48
2023/07/31 07:30:58;;;;;;;;;;;;;;;24.90;64.60;100350.28;7399826;19;1600;-49
2023/07/31 07:33:26;;;;;;;;;;;;;;;24.84;64.64;100351.03;7399858;19;1259;-49
2023/07/31 07:35:54;;;;;;;;;;;;;;;24.92;64.60;100348.25;7397550;19;1188;-49
2023/07/31 07:38:22;;;;;;;;;;;;;;;24.89;64.53;100353.19;7399887;19;1571;-49
2023/07/31 07:40:52;;;;;;;;;;;;;;;24.90;64.60;100328.66;7399021;19;1215;-49
2023/07/31 07:43:21;;;;;;;;;;;;;;;24.81;64.87;100354.13;7398617;19;1845;-48
2023/07/31 07:45:53;;;;;;;;;;;;;;;24.78;65.06;100362.59;7399026;19;1296;-49
2023/07/31 07:48:21;;;;;;;;;;;;;;;24.89;64.43;100354.03;7399759;19;1485;-49
2023/07/31 07:50:49;;;;;;;;;;;;;;;24.83;64.79;100365.59;7399879;19;1588;-49
2023/07/31 07:53:18;;;;;;;;;;;;;;;24.81;64.83;100348.72;7399926;19;1461;-48
2023/07/31 07:55:46;;;;;;;;;;;;;;;24.76;64.87;100364.63;7400833;19;1123;-49
2023/07/31 07:58:14;;;;;;;;;;;;;;;24.83;64.71;100357.47;7400235;19;1611;-49
2023/07/31 08:00:42;;;;;;;;;;;;;;;24.78;64.85;100365.28;7400282;19;1734;-48
2023/07/31 08:03:13;;;;;;;;;;;;;;;24.93;64.23;100371.56;7398169;19;1844;-49
2023/07/31 08:05:42;;;;;;;;;;;;;;;24.85;64.34;100371.66;7398958;19;1714;-48
2023/07/31 08:08:10;;;;;;;;;;;;;;;24.84;64.69;100382.66;7398141;19;1800;-48
2023/07/31 08:10:38;;;;;;;;;;;;;;;24.90;64.19;100371.09;7400044;19;1369;-49
2023/07/31 08:13:07;;;;;;;;;;;;;;;24.91;64.19;100368.22;7400428;19;1818;-49
2023/07/31 08:15:35;;;;;;;;;;;;;;;24.93;63.98;100371.56;7399359;19;1865;-48
2023/07/31 08:18:03;;;;;;;;;;;;;;;24.94;64.23;100378.66;7399947;19;1327;-48
2023/07/31 08:20:34;;;;;;;;;;;;;;;24.91;64.13;100375.47;7399192;19;1186;-48
2023/07/31 08:23:03;;;;;;;;;;;;;;;24.94;64.18;100380.53;7398857;19;1843;-48
2023/07/31 08:25:31;;;;;;;;;;;;;;;24.92;64.21;100367.19;7397878;19;1769;-48
2023/07/31 08:27:59;;;;;;;;;;;;;;;24.94;63.97;100384.06;7398198;19;1173;-49
2023/07/31 08:30:27;;;;;;;;;;;;;;;24.93;64.16;100376.13;7398073;19;1547;-49
2023/07/31 08:32:56;;;;;;;;;;;;;;;24.92;63.91;100391.53;7398500;19;1176;-49
2023/07/31 08:35:24;;;;;;;;;;;;;;;25.05;63.63;100377.38;7398622;19;1182;-49
2023/07/31 08:37:55;;;;;;;;;;;;;;;25.11;63.47;100378.47;7398011;19;1176;-49
2023/07/31 08:40:24;;;;;;;;;;;;;;;25.05;63.62;100379.22;7397437;19;1859;-48
2023/07/31 08:42:53;;;;;;;;;;;;;;;24.97;63.50;100372.88;7396524;19;1866;-48
2023/07/31 08:45:22;;;;;;;;;;;;;;;25.08;63.54;100378.88;7399120;19;1232;-49
2023/07/31 08:47:51;;;;;;;;;;;;;;;25.05;63.64;100371.09;7397867;19;1279;-48
2023/07/31 08:50:21;;;;;;;;;;;;;;;25.01;63.66;100374.19;7396937;19;1204;-48
2023/07/31 08:52:50;;;;;;;;;;;;;;;25.03;63.60;100374.03;7397607;19;1301;-49
2023/07/31 08:55:23;;;;;;;;;;;;;;;25.05;63.45;100371.09;7397824;19;1155;-49
2023/07/31 08:57:53;;;;;;;;;;;;;;;25.13;62.92;100392.69;7398098;19;1565;-49
2023/07/31 09:00:24;;;;;;;;;;;;;;;25.05;63.37;100379.22;7397561;19;1226;-48
2023/07/31 09:02:56;;;;;;;;;;;;;;;25.04;63.19;100378.38;7396548;19;1842;-48
2023/07/31 09:05:25;;;;;;;;;;;;;;;24.93;63.80;100370.72;7396537;19;1729;-48
2023/07/31 09:07:54;;;;;;;;;;;;;;;24.93;63.78;100384.25;7398643;19;1749;-48
2023/07/31 09:10:24;;;;;;;;;;;;;;;24.87;63.83;100393.97;7398030;19;1393;-48
2023/07/31 09:12:54;;;;;;;;;;;;;;;24.97;63.50;100388.28;7397455;19;1755;-49
2023/07/31 09:15:22;;;;;;;;;;;;;;;25.00;63.24;100388.72;7398192;19;1459;-49
2023/07/31 09:17:51;;;;;;;;;;;;;;;24.96;63.45;100376.59;7398278;19;1268;-48
2023/07/31 09:20:20;;;;;;;;;;;;;;;24.96;63.51;100371.19;7397745;19;1078;-49
2023/07/31 09:22:49;;;;;;;;;;;;;;;24.92;63.62;100388.00;7396842;19;1843;-49
2023/07/31 09:25:18;;;;;;;;;;;;;;;24.97;63.52;100382.88;7397005;19;1935;-48
2023/07/31 09:27:53;;;;;;;;;;;;;;;25.01;63.32;100376.06;7396430;19;1909;-49
2023/07/31 09:30:21;;;;;;;;;;;;;;;25.04;63.34;100375.69;7397277;19;1726;-48
2023/07/31 09:32:50;;;;;;;;;;;;;;;24.97;63.22;100369.34;7395450;19;1484;-49
2023/07/31 09:35:23;;;;;;;;;;;;;;;24.96;63.62;100371.19;7396712;19;1580;-48
2023/07/31 09:37:52;;;;;;;;;;;;;;;24.95;63.38;100366.00;7396433;19;1619;-48
2023/07/31 09:40:30;;;;;;;;;;;;;;;24.91;63.76;100352.00;7396188;19;1500;-48
2023/07/31 09:43:02;;;;;;;;;;;;;;;24.93;63.44;100351.78;7394668;19;1865;-48
2023/07/31 09:45:31;;;;;;;;;;;;;;;24.90;63.53;100361.13;7394992;19;1275;-49
2023/07/31 09:47:59;;;;;;;;;;;;;;;24.85;64.06;100371.66;7395730;19;1536;-48
2023/07/31 09:50:27;;;;;;;;;;;;;;;24.89;63.74;100375.69;7396490;19;1172;-48
2023/07/31 09:52:56;;;;;;;;;;;;;;;24.87;63.93;100382.28;7394250;19;1960;-48
2023/07/31 09:55:24;;;;;;;;;;;;;;;24.92;63.87;100377.16;7395662;19;1497;-48
2023/07/31 09:57:52;;;;;;;;;;;;;;;24.86;63.96;100364.38;7394737;19;1281;-48
2023/07/31 10:00:25;;;;;;;;;;;;;;;24.92;63.55;100369.06;7400423;19;1840;-48
2023/07/31 10:02:53;;;;;;;;;;;;;;;24.94;63.45;100375.13;7402329;19;1842;-49
2023/07/31 10:05:22;;;;;;;;;;;;;;;24.95;63.60;100372.22;7403435;19;1485;-48
2023/07/31 10:07:54;;;;;;;;;;;;;;;24.91;63.53;100359.25;7402687;19;1552;-49
2023/07/31 10:10:23;;;;;;;;;;;;;;;24.84;63.81;100358.31;7402795;19;1256;-48
2023/07/31 10:12:52;;;;;;;;;;;;;;;24.81;63.88;100368.47;7402497;19;1243;-48
2023/07/31 10:15:21;;;;;;;;;;;;;;;24.81;63.92;100357.66;7402975;19;1829;-48
2023/07/31 10:17:52;;;;;;;;;;;;;;;24.81;63.96;100367.66;7403210;19;1054;-48
2023/07/31 10:20:20;;;;;;;;;;;;;;;24.84;64.17;100355.63;7401757;19;1955;-48
2023/07/31 10:22:49;;;;;;;;;;;;;;;24.87;63.80;100363.34;7401038;19;1826;-48
2023/07/31 10:25:17;;;;;;;;;;;;;;;24.82;63.79;100350.38;7402694;19;1501;-48
2023/07/31 10:27:46;;;;;;;;;;;;;;;24.85;63.52;100336.50;7402103;19;1539;-48
2023/07/31 10:30:16;;;;;;;;;;;;;;;24.87;63.55;100353.38;7403017;19;1428;-48
2023/07/31 10:32:45;;;;;;;;;;;;;;;24.96;63.56;100344.16;7401624;19;1693;-48
2023/07/31 10:35:17;;;;;;;;;;;;;;;24.96;63.50;100349.56;7403954;19;1741;-48
2023/07/31 10:37:46;;;;;;;;;;;;;;;25.02;63.43;100334.44;7403147;19;1663;-48
2023/07/31 10:40:15;;;;;;;;;;;;;;;24.91;63.60;100341.16;7403484;19;964;-48
2023/07/31 10:42:49;;;;;;;;;;;;;;;24.89;63.78;100335.09;7400483;19;1865;-48
2023/07/31 10:45:27;;;;;;;;;;;;;;;24.86;63.65;100337.34;7402206;19;1711;-48
2023/07/31 10:48:01;;;;;;;;;;;;;;;24.84;63.90;100334.81;7402079;19;1465;-48
2023/07/31 10:50:32;;;;;;;;;;;;;;;24.84;63.95;100334.81;7402419;19;1757;-48
2023/07/31 10:53:01;;;;;;;;;;;;;;;24.97;63.24;100337.72;7401609;19;1389;-48
2023/07/31 10:55:30;;;;;;;;;;;;;;;24.97;63.34;100329.59;7401474;19;1121;-48
2023/07/31 10:57:59;;;;;;;;;;;;;;;25.00;63.32;100329.22;7401555;19;1222;-48
2023/07/31 11:00:29;;;;;;;;;;;;;;;25.03;63.34;100338.84;7401243;19;1294;-48
2023/07/31 11:03:01;;;;;;;;;;;;;;;25.07;63.26;100323.06;7400837;19;1860;-48
2023/07/31 11:05:45;;;;;;;;;;;;;;;25.03;63.16;100333.44;7401224;19;1564;-48
2023/07/31 11:08:17;;;;;;;;;;;;;;;24.93;63.52;100316.63;7400843;19;1292;-48
2023/07/31 11:10:45;;;;;;;;;;;;;;;24.91;63.43;100313.25;7399748;19;1185;-48
2023/07/31 11:13:14;;;;;;;;;;;;;;;25.04;63.27;100313.47;7401656;19;1598;-48
2023/07/31 11:15:42;;;;;;;;;;;;;;;25.01;63.11;100320.09;7401499;19;1412;-48
2023/07/31 11:18:11;;;;;;;;;;;;;;;24.95;63.52;100315.44;7400887;19;1424;-48
2023/07/31 11:20:40;;;;;;;;;;;;;;;24.94;63.46;100319.16;7399211;19;1519;-48
2023/07/31 11:23:10;;;;;;;;;;;;;;;24.97;63.22;100316.09;7398097;19;1859;-48
2023/07/31 11:25:42;;;;;;;;;;;;;;;25.08;63.16;100322.06;7397608;19;1112;-48
2023/07/31 11:28:11;;;;;;;;;;;;;;;25.06;62.94;100318.69;7400456;19;1527;-49
2023/07/31 11:30:40;;;;;;;;;;;;;;;25.00;63.33;100310.28;7399300;19;1535;-48
2023/07/31 11:33:09;;;;;;;;;;;;;;;24.96;63.57;100311.69;7399972;19;1392;-48
2023/07/31 11:35:38;;;;;;;;;;;;;;;24.92;63.60;100294.16;7400733;19;1731;-48
2023/07/31 11:38:06;;;;;;;;;;;;;;;24.87;63.83;100304.69;7399782;19;1418;-48
2023/07/31 11:40:43;;;;;;;;;;;;;;;24.97;63.47;100302.56;7402098;19;1052;-46
2023/07/31 11:43:17;;;;;;;;;;;;;;;24.99;63.52;100295.09;7399711;19;1833;-48
2023/07/31 11:45:47;;;;;;;;;;;;;;;24.96;63.46;100291.91;7400138;19;1563;-48
2023/07/31 11:48:20;;;;;;;;;;;;;;;24.95;63.79;100293.78;7399845;19;1505;-48
2023/07/31 11:50:49;;;;;;;;;;;;;;;24.99;63.29;100296.97;7399480;19;1210;-48
2023/07/31 11:53:18;;;;;;;;;;;;;;;25.05;63.30;100279.13;7399708;19;1477;-49
2023/07/31 11:55:47;;;;;;;;;;;;;;;25.04;63.32;100272.06;7400408;19;1299;-49
2023/07/31 11:58:19;;;;;;;;;;;;;;;24.97;63.50;100283.63;7399247;19;1201;-48
2023/07/31 12:00:47;;;;;;;;;;;;;;;25.00;63.52;100275.13;7399658;19;1623;-48
2023/07/31 12:03:16;;;;;;;;;;;;;;;24.92;63.57;100288.75;7399143;19;1858;-48
2023/07/31 12:05:44;;;;;;;;;;;;;;;24.95;63.65;100284.84;7400407;19;1678;-48
2023/07/31 12:08:14;;;;;;;;;;;;;;;24.91;63.63;100273.56;7398942;19;1739;-48
2023/07/31 12:10:42;;;;;;;;;;;;;;;24.87;63.55;100274.97;7398419;19;1455;-48
2023/07/31 12:13:13;;;;;;;;;;;;;;;24.88;63.77;100259.56;7400417;19;1829;-48
2023/07/31 12:15:45;;;;;;;;;;;;;;;25.03;63.53;100276.63;7398926;19;2088;-48
2023/07/31 12:18:14;;;;;;;;;;;;;;;24.93;63.54;100266.09;7399034;19;1847;-48
2023/07/31 12:20:43;;;;;;;;;;;;;;;24.94;63.49;100278.56;7398424;19;1738;-48
2023/07/31 12:23:15;;;;;;;;;;;;;;;24.96;63.60;100271.09;7398864;19;1853;-48
2023/07/31 12:25:44;;;;;;;;;;;;;;;24.96;63.54;100265.69;7400510;19;975;-48
2023/07/31 12:28:14;;;;;;;;;;;;;;;24.96;63.49;100268.41;7400162;19;1955;-48
2023/07/31 12:30:45;;;;;;;;;;;;;;;24.91;63.73;100262.72;7397971;19;1464;-48
2023/07/31 12:33:16;;;;;;;;;;;;;;;24.98;63.40;100260.94;7399040;19;1809;-48
2023/07/31 12:35:46;;;;;;;;;;;;;;;25.07;63.31;100266.25;7397620;19;1219;-48
2023/07/31 12:38:15;;;;;;;;;;;;;;;25.02;63.19;100288.47;7398242;19;1982;-48
2023/07/31 12:40:44;;;;;;;;;;;;;;;25.00;63.67;100299.47;7397244;19;1860;-48
2023/07/31 12:43:12;;;;;;;;;;;;;;;24.92;63.62;100283.31;7396555;19;1872;-48
2023/07/31 12:45:41;;;;;;;;;;;;;;;24.96;63.63;100284.63;7398528;19;1747;-48
2023/07/31 12:48:11;;;;;;;;;;;;;;;25.01;63.45;100282.22;7398056;19;1816;-48
2023/07/31 12:50:40;;;;;;;;;;;;;;;25.04;63.08;100282.88;7397722;19;1814;-48
2023/07/31 12:53:08;;;;;;;;;;;;;;;25.18;62.92;100293.66;7398175;19;1805;-48
2023/07/31 12:55:37;;;;;;;;;;;;;;;25.13;63.19;100281.75;7398173;19;1099;-48
2023/07/31 12:58:05;;;;;;;;;;;;;;;25.12;63.13;100282.78;7397053;19;1610;-48